24 Datensätze sind 1 Tag. Aufzeichnung ab 07. Oktober 2014.
Werte (Summe von Anzahl und Position darf nicht größer sein als mögliche Datensätze).
Anzahl:
Position: Summe:
\ 18395 Datensätze möglich.
  20 letzte Aufzeichnungen
gezeigte Daten 20 ab Position 1    Summe der Auswahl = 21
23.01.2017 / 08:30 Uhr bis 24.01.2017 / 03:30 Uhr
Regenmenge 0 Liter

Datum/Zeit Temp. Taupunkt Luftfeuchte Wind speed Wind böhe Wind Temp. Regen Summe Luftdruck
24.01.2017 | 04:30 Uhr -5.2C -7.5C 84% 0.0 kmh 0.0kmh -6.2C 0.0mm 1007.7861mBar/hPa
24.01.2017 | 03:30 Uhr -5.3C -7.6C 84% 0.0 kmh 0.0kmh -6.3C 0.0mm 1007.9111mBar/hPa
24.01.2017 | 02:30 Uhr -5.5C -7.8C 84% 0.0 kmh 0.0kmh -6.5C 0.0mm 1008.2236mBar/hPa
24.01.2017 | 01:30 Uhr -5.5C -7.9C 83% 0.0 kmh 0.0kmh -6.8C 0.0mm 1008.2861mBar/hPa
24.01.2017 | 00:30 Uhr -5.7C -8.1C 83% 0.0 kmh 0.0kmh -6.9C 0.0mm 1008.3486mBar/hPa
23.01.2017 | 23:30 Uhr -5.7C -8.3C 82% 0.0 kmh 0.2kmh -7.1C 0.0mm 1008.0986mBar/hPa
23.01.2017 | 22:31 Uhr -5.5C -7.9C 83% 0.0 kmh 0.0kmh -6.8C 0.0mm 1008.2861mBar/hPa
23.01.2017 | 21:30 Uhr -5.6C -8.0C 83% 0.0 kmh 0.0kmh -6.8C 0.0mm 1008.0986mBar/hPa
23.01.2017 | 20:30 Uhr -5.7C -8.0C 84% 0.0 kmh 0.0kmh -6.9C 0.0mm 1007.9111mBar/hPa
23.01.2017 | 19:30 Uhr -5.7C -8.1C 83% 0.0 kmh 0.1kmh -6.9C 0.0mm 1007.8486mBar/hPa
23.01.2017 | 18:30 Uhr -5.7C -8.1C 83% 0.0 kmh 0.0kmh -6.9C 0.0mm 1007.4736mBar/hPa
23.01.2017 | 17:30 Uhr -5.9C -8.3C 83% 0.0 kmh 0.2kmh -7.1C 0.0mm 1007.2861mBar/hPa
23.01.2017 | 16:30 Uhr -6.1C -8.7C 82% 0.0 kmh 0.1kmh -7.3C 0.0mm 1007.4736mBar/hPa
23.01.2017 | 15:30 Uhr -6.1C -8.8C 81% 4.1 kmh 0.4kmh -7.0C 0.0mm 1007.2236mBar/hPa
23.01.2017 | 14:30 Uhr -6.1C -9.0C 80% 0.0 kmh 0.2kmh -6.7C 0.0mm 1007.0361mBar/hPa
23.01.2017 | 13:30 Uhr -6.4C -9.8C 77% 0.0 kmh 0.4kmh -7.0C 0.0mm 1006.7861mBar/hPa
23.01.2017 | 12:30 Uhr -5.3C -9.9C 70% 6.1 kmh 0.6kmh -3.9C 0.0mm 1006.5361mBar/hPa
23.01.2017 | 11:30 Uhr -4.5C -9.1C 70% 0.0 kmh 0.2kmh -5.6C 0.0mm 1006.9736mBar/hPa
23.01.2017 | 10:30 Uhr -4.5C -9.0C 71% 0.0 kmh 0.4kmh -5.5C 0.0mm 1006.7861mBar/hPa
23.01.2017 | 09:30 Uhr -5.1C -9.2C 73% 3.1 kmh 0.3kmh -6.9C 0.0mm 1007.0986mBar/hPa